createdAt,value
2019-05-06T00:00:18.003Z,79.40
2019-05-06T00:02:46.352Z,85.00
2019-05-06T00:05:14.602Z,85.80
2019-05-06T00:07:44.532Z,87.40
2019-05-06T00:10:24.530Z,79.40
2019-05-06T00:12:53.603Z,84.60
2019-05-06T00:15:23.467Z,75.70
2019-05-06T00:17:53.699Z,76.00
2019-05-06T00:20:24.093Z,75.30
2019-05-06T00:22:54.620Z,78.00
2019-05-06T00:25:36.846Z,77.20
2019-05-06T00:28:09.511Z,81.10
2019-05-06T00:30:39.531Z,77.00
2019-05-06T00:33:07.811Z,80.60
2019-05-06T00:35:36.052Z,80.40
2019-05-06T00:38:04.525Z,78.90
2019-05-06T00:40:50.062Z,80.40
2019-05-06T00:43:18.319Z,79.80
2019-05-06T00:45:46.563Z,78.00
2019-05-06T00:48:14.847Z,80.60
2019-05-06T00:50:44.132Z,79.00
2019-05-06T00:53:14.194Z,81.90
2019-05-06T00:55:44.541Z,83.90
2019-05-06T00:58:14.255Z,86.30
2019-05-06T01:00:44.273Z,84.00
2019-05-06T01:03:14.102Z,82.50
2019-05-06T01:05:44.294Z,82.90
2019-05-06T01:08:14.174Z,82.30
2019-05-06T01:10:42.484Z,81.60
2019-05-06T01:13:14.461Z,86.20
2019-05-06T01:15:44.048Z,83.60
2019-05-06T01:18:13.803Z,85.40
2019-05-06T01:20:42.128Z,89.50
2019-05-06T01:23:10.375Z,88.10
2019-05-06T01:25:38.637Z,88.00
2019-05-06T01:28:06.879Z,87.70
2019-05-06T01:30:35.123Z,89.70
2019-05-06T01:33:03.971Z,87.90
2019-05-06T01:35:32.407Z,81.70
2019-05-06T01:38:20.451Z,86.00
2019-05-06T01:41:06.074Z,87.30
2019-05-06T01:43:35.975Z,85.00
2019-05-06T01:46:04.694Z,87.80
2019-05-06T01:48:37.398Z,84.50
2019-05-06T01:51:05.663Z,84.40
2019-05-06T01:53:33.954Z,88.40
2019-05-06T01:56:03.660Z,90.30
2019-05-06T01:58:33.553Z,89.20
2019-05-06T02:01:03.932Z,88.10
2019-05-06T02:03:31.888Z,89.50
2019-05-06T02:06:00.145Z,88.90
2019-05-06T02:08:28.395Z,88.90
2019-05-06T02:10:56.639Z,88.20
2019-05-06T02:13:24.899Z,87.70
2019-05-06T02:15:54.773Z,81.20
2019-05-06T02:18:24.330Z,85.00
2019-05-06T02:20:54.393Z,84.00
2019-05-06T02:23:24.283Z,86.50
2019-05-06T02:25:54.170Z,84.10
2019-05-06T02:28:23.588Z,80.60
2019-05-06T02:30:54.777Z,84.20
2019-05-06T02:33:24.958Z,84.20
2019-05-06T02:35:55.092Z,81.50
2019-05-06T02:38:33.199Z,84.80
2019-05-06T02:40:55.098Z,77.70
2019-05-06T02:43:23.467Z,84.30
2019-05-06T02:45:53.135Z,86.70
2019-05-06T02:48:38.080Z,86.50
2019-05-06T02:51:13.142Z,85.00
2019-05-06T02:53:42.906Z,86.60
2019-05-06T02:56:13.231Z,89.70
2019-05-06T02:58:43.499Z,88.30
2019-05-06T03:01:13.387Z,89.00
2019-05-06T03:03:43.371Z,87.90
2019-05-06T03:06:13.158Z,90.10
2019-05-06T03:08:43.178Z,89.40
2019-05-06T03:11:13.468Z,88.70
2019-05-06T03:13:43.455Z,90.00
2019-05-06T03:16:10.423Z,90.20
2019-05-06T03:18:38.683Z,89.00
2019-05-06T03:21:08.577Z,88.20
2019-05-06T03:23:54.810Z,89.70
2019-05-06T03:26:23.642Z,89.70
2019-05-06T03:28:53.588Z,90.40
2019-05-06T03:31:26.170Z,90.70
2019-05-06T03:34:16.158Z,88.50
2019-05-06T03:36:27.130Z,90.30
2019-05-06T03:38:53.571Z,88.90
2019-05-06T03:41:26.159Z,89.20
2019-05-06T03:43:54.286Z,89.50
2019-05-06T03:46:23.580Z,89.70
2019-05-06T03:49:05.380Z,88.80
2019-05-06T03:51:34.581Z,89.90
2019-05-06T03:54:05.703Z,91.40
2019-05-06T03:56:34.260Z,89.80
2019-05-06T03:59:02.868Z,90.50
2019-05-06T04:01:33.532Z,90.60
2019-05-06T04:04:03.608Z,90.90
2019-05-06T04:06:33.254Z,90.90
2019-05-06T04:09:03.640Z,90.70
2019-05-06T04:11:35.949Z,89.70
2019-05-06T04:14:02.858Z,86.80
2019-05-06T04:16:33.780Z,87.70
2019-05-06T04:19:09.532Z,87.10
2019-05-06T04:21:45.437Z,87.60
2019-05-06T04:24:33.675Z,84.70
2019-05-06T04:27:22.830Z,84.10
2019-05-06T04:29:54.150Z,87.30
2019-05-06T04:32:23.369Z,85.90
2019-05-06T04:34:53.491Z,82.50
2019-05-06T04:37:23.908Z,84.50
2019-05-06T04:39:53.216Z,81.00
2019-05-06T04:42:23.276Z,80.00
2019-05-06T04:44:54.195Z,82.70
2019-05-06T04:47:24.081Z,86.70
2019-05-06T04:49:53.297Z,85.10
2019-05-06T04:52:22.895Z,86.10
2019-05-06T04:54:53.386Z,88.00
2019-05-06T04:57:23.861Z,82.50
2019-05-06T04:59:54.233Z,71.60
2019-05-06T05:02:23.087Z,70.30
2019-05-06T05:04:52.929Z,67.60
2019-05-06T05:07:33.199Z,80.60
2019-05-06T05:10:03.525Z,76.00
2019-05-06T05:12:48.840Z,63.80
2019-05-06T05:15:18.727Z,71.90
2019-05-06T05:17:54.515Z,64.90
2019-05-06T05:20:36.539Z,67.20
2019-05-06T05:22:52.909Z,64.70
2019-05-06T05:25:22.199Z,59.80
2019-05-06T05:27:52.722Z,59.60
2019-05-06T05:30:22.016Z,59.60
2019-05-06T05:32:56.002Z,59.60
2019-05-06T05:35:24.246Z,57.70
2019-05-06T05:37:52.942Z,57.50
2019-05-06T05:40:22.536Z,58.20
2019-05-06T05:42:55.400Z,59.50
2019-05-06T05:45:23.651Z,56.60
2019-05-06T05:47:53.555Z,58.20
2019-05-06T05:50:23.484Z,58.40
2019-05-06T05:52:52.091Z,57.20
2019-05-06T05:55:21.905Z,58.90
2019-05-06T05:57:51.887Z,57.50
2019-05-06T06:00:22.486Z,55.20
2019-05-06T06:02:53.034Z,58.40
2019-05-06T06:05:21.908Z,58.30
2019-05-06T06:07:50.279Z,54.80
2019-05-06T06:10:36.487Z,55.70
2019-05-06T06:13:04.738Z,54.70
2019-05-06T06:15:52.168Z,54.50
2019-05-06T06:18:39.731Z,53.70
2019-05-06T06:21:23.367Z,54.70
2019-05-06T06:24:08.124Z,52.80
2019-05-06T06:26:36.435Z,53.30
2019-05-06T06:29:04.684Z,52.70
2019-05-06T06:31:34.580Z,54.00
2019-05-06T06:34:04.495Z,54.40
2019-05-06T06:36:41.903Z,52.40
2019-05-06T06:39:23.798Z,52.00
2019-05-06T06:41:53.689Z,52.70
2019-05-06T06:44:23.568Z,52.60
2019-05-06T06:46:52.460Z,51.20
2019-05-06T06:49:22.250Z,52.30
2019-05-06T06:51:53.026Z,52.50
2019-05-06T06:54:22.716Z,51.60
2019-05-06T06:57:08.540Z,50.90
2019-05-06T06:59:33.003Z,51.00
2019-05-06T07:02:02.963Z,51.10
2019-05-06T07:04:43.174Z,51.80
2019-05-06T07:07:12.953Z,51.00
2019-05-06T07:09:41.954Z,51.10
2019-05-06T07:12:13.182Z,52.00
2019-05-06T07:14:42.806Z,51.60
2019-05-06T07:17:13.196Z,51.40
2019-05-06T07:19:42.817Z,50.90
2019-05-06T07:22:12.707Z,48.60
2019-05-06T07:24:43.083Z,50.80
2019-05-06T07:27:12.798Z,49.80
2019-05-06T07:29:48.428Z,50.10
2019-05-06T07:32:12.273Z,49.10
2019-05-06T07:34:42.056Z,51.00
2019-05-06T07:37:12.375Z,49.90
2019-05-06T07:39:42.797Z,48.30
2019-05-06T07:42:14.678Z,48.40
2019-05-06T07:44:47.229Z,49.10
2019-05-06T07:47:23.998Z,48.00
2019-05-06T07:49:53.148Z,47.50
2019-05-06T07:52:23.100Z,49.70
2019-05-06T07:54:53.374Z,49.10
2019-05-06T07:57:22.062Z,46.70
2019-05-06T07:59:52.410Z,48.60
2019-05-06T08:02:22.612Z,48.90
2019-05-06T08:04:52.962Z,47.50
2019-05-06T08:07:22.268Z,47.60
2019-05-06T08:09:53.126Z,47.10
2019-05-06T08:12:32.735Z,48.00
2019-05-06T08:15:07.925Z,48.80
2019-05-06T08:17:42.418Z,47.90
2019-05-06T08:20:15.882Z,49.20
2019-05-06T08:23:22.032Z,48.20
2019-05-06T08:25:54.337Z,46.30
2019-05-06T08:28:22.541Z,46.60
2019-05-06T08:30:53.055Z,47.90
2019-05-06T08:33:21.978Z,48.00
2019-05-06T08:35:50.395Z,46.40
2019-05-06T08:38:18.648Z,50.20
2019-05-06T08:40:46.920Z,45.60
2019-05-06T08:43:15.165Z,44.70
2019-05-06T08:45:43.411Z,47.10
2019-05-06T08:48:13.011Z,46.70
2019-05-06T08:50:45.963Z,47.30
2019-05-06T08:53:15.894Z,45.30
2019-05-06T08:55:47.640Z,46.50
2019-05-06T08:58:29.174Z,47.60
2019-05-06T09:01:08.230Z,46.00
2019-05-06T09:03:36.792Z,47.20
2019-05-06T09:06:24.483Z,47.10
2019-05-06T09:08:42.826Z,47.10
2019-05-06T09:11:19.394Z,46.60
2019-05-06T09:13:47.823Z,46.60
2019-05-06T09:16:16.260Z,46.00
2019-05-06T09:18:46.149Z,47.30
2019-05-06T09:21:14.474Z,46.40
2019-05-06T09:23:42.728Z,47.00
2019-05-06T09:26:13.137Z,46.80
2019-05-06T09:28:45.896Z,47.70
2019-05-06T09:31:33.616Z,46.50
2019-05-06T09:34:03.776Z,47.80
2019-05-06T09:36:41.345Z,48.20
2019-05-06T09:39:02.413Z,48.00
2019-05-06T09:41:32.495Z,47.20
2019-05-06T09:44:02.986Z,46.90
2019-05-06T09:46:39.378Z,46.00
2019-05-06T09:49:15.124Z,46.10
2019-05-06T09:51:43.390Z,46.70
2019-05-06T09:57:47.535Z,44.90
2019-05-06T10:00:17.528Z,45.40
2019-05-06T10:02:49.310Z,45.50
2019-05-06T10:05:15.972Z,46.40
2019-05-06T10:07:43.578Z,46.00
2019-05-06T10:10:11.841Z,45.00
2019-05-06T10:12:42.042Z,46.00
2019-05-06T10:15:10.129Z,43.60
2019-05-06T10:17:38.506Z,45.00
2019-05-06T10:20:06.826Z,44.80
2019-05-06T10:22:35.172Z,45.70
2019-05-06T10:25:22.658Z,43.70
2019-05-06T10:28:04.680Z,43.10
2019-05-06T10:30:40.264Z,44.20
2019-05-06T10:33:13.123Z,44.20
2019-05-06T10:35:42.827Z,45.00
2019-05-06T10:38:32.272Z,45.30
2019-05-06T10:41:06.675Z,44.90
2019-05-06T10:43:38.775Z,44.50
2019-05-06T10:46:07.032Z,42.20
2019-05-06T10:48:35.301Z,45.20
2019-05-06T10:51:07.903Z,44.00
2019-05-06T10:53:36.151Z,45.90
2019-05-06T10:56:23.067Z,44.50
2019-05-06T10:58:52.764Z,41.90
2019-05-06T11:01:23.240Z,43.50
2019-05-06T11:03:59.031Z,42.90
2019-05-06T11:06:27.292Z,43.60
2019-05-06T11:08:56.471Z,44.10
2019-05-06T11:11:35.176Z,42.20
2019-05-06T11:13:58.060Z,44.00
2019-05-06T11:16:33.123Z,43.60
2019-05-06T11:19:02.535Z,42.20
2019-05-06T11:21:32.871Z,43.10
2019-05-06T11:24:00.985Z,43.80
2019-05-06T11:26:29.307Z,42.90
2019-05-06T11:29:05.222Z,44.20
2019-05-06T11:31:36.892Z,42.40
2019-05-06T11:34:12.652Z,42.80
2019-05-06T11:36:42.763Z,43.10
2019-05-06T11:39:14.007Z,43.10
2019-05-06T11:41:56.504Z,43.10
2019-05-06T11:44:14.044Z,43.50
2019-05-06T11:46:42.976Z,42.80
2019-05-06T11:49:12.450Z,44.00
2019-05-06T11:51:43.551Z,44.00
2019-05-06T11:54:17.441Z,44.60
2019-05-06T11:56:48.802Z,43.50
2019-05-06T11:59:12.957Z,43.70
2019-05-06T12:01:43.524Z,46.40
2019-05-06T12:04:13.866Z,45.80
2019-05-06T12:06:42.453Z,43.00
2019-05-06T12:09:16.591Z,45.50
2019-05-06T12:11:43.206Z,45.50
2019-05-06T12:14:12.402Z,45.40
2019-05-06T12:16:40.810Z,46.00
2019-05-06T12:19:09.144Z,46.20
2019-05-06T12:21:37.435Z,47.00
2019-05-06T12:24:05.735Z,45.00
2019-05-06T12:26:33.995Z,45.00
2019-05-06T12:29:02.439Z,45.80
2019-05-06T12:31:46.630Z,44.00
2019-05-06T12:34:32.309Z,45.40
2019-05-06T12:37:24.851Z,45.80
2019-05-06T12:44:13.083Z,46.50
2019-05-06T12:46:43.012Z,46.10
2019-05-06T12:49:12.716Z,45.80
2019-05-06T12:51:43.378Z,46.20
2019-05-06T12:54:17.424Z,46.20
2019-05-06T12:56:53.206Z,45.80
2019-05-06T12:59:22.327Z,46.50
2019-05-06T13:01:53.792Z,45.80
2019-05-06T13:04:42.494Z,46.20
2019-05-06T13:06:53.784Z,45.90
2019-05-06T13:09:22.615Z,46.30
2019-05-06T13:11:57.063Z,44.90
2019-05-06T13:14:25.328Z,45.80
2019-05-06T13:16:53.591Z,46.50
2019-05-06T13:19:22.868Z,46.70
2019-05-06T13:21:54.818Z,47.10
2019-05-06T13:24:26.092Z,47.00
2019-05-06T13:27:19.509Z,47.60
2019-05-06T13:29:47.755Z,45.90
2019-05-06T13:32:20.355Z,47.40
2019-05-06T13:34:52.631Z,46.80
2019-05-06T13:37:22.870Z,47.30
2019-05-06T13:39:52.965Z,46.90
2019-05-06T13:42:36.799Z,46.20
2019-05-06T13:45:05.743Z,46.70
2019-05-06T13:47:44.721Z,49.50
2019-05-06T13:50:15.054Z,47.90
2019-05-06T13:53:10.908Z,47.10
2019-05-06T13:55:32.563Z,47.90
2019-05-06T13:58:06.415Z,46.90
2019-05-06T14:00:47.837Z,45.70
2019-05-06T14:03:37.942Z,46.40
2019-05-06T14:06:09.173Z,46.20
2019-05-06T14:08:37.441Z,45.70
2019-05-06T14:11:05.763Z,47.50
2019-05-06T14:13:54.384Z,45.50
2019-05-06T14:16:24.533Z,46.30
2019-05-06T14:18:58.495Z,46.60
2019-05-06T14:21:39.023Z,45.70
2019-05-06T14:24:34.009Z,45.90
2019-05-06T14:27:13.379Z,47.60
2019-05-06T14:29:53.336Z,46.40
2019-05-06T14:32:23.618Z,47.70
2019-05-06T14:34:54.476Z,45.90
2019-05-06T14:37:32.930Z,46.60
2019-05-06T14:40:08.695Z,46.70
2019-05-06T14:42:53.216Z,45.80
2019-05-06T14:45:27.206Z,45.70
2019-05-06T14:48:03.987Z,45.70
2019-05-06T14:50:44.333Z,46.20
2019-05-06T14:53:02.673Z,46.50
2019-05-06T14:55:32.865Z,44.10
2019-05-06T14:58:04.336Z,44.80
2019-05-06T15:01:16.078Z,45.20
2019-05-06T15:03:44.435Z,44.70
2019-05-06T15:06:17.034Z,44.90
2019-05-06T15:08:57.291Z,45.40
2019-05-06T15:11:34.435Z,46.40
2019-05-06T15:17:37.186Z,46.20
2019-05-06T15:20:12.100Z,46.80
2019-05-06T15:22:49.962Z,46.60
2019-05-06T15:25:42.214Z,46.40
2019-05-06T15:28:43.045Z,45.80
2019-05-06T15:31:47.506Z,45.40
2019-05-06T15:40:32.088Z,45.70
2019-05-06T15:42:57.059Z,46.40
2019-05-06T15:45:34.503Z,46.80
2019-05-06T15:51:22.304Z,46.50
2019-05-06T15:53:57.021Z,44.70
2019-05-06T15:56:34.913Z,45.20
2019-05-06T15:59:29.819Z,46.30
2019-05-06T16:02:30.079Z,45.50
2019-05-06T16:05:12.506Z,46.00
2019-05-06T16:07:53.155Z,45.80
2019-05-06T16:10:51.819Z,45.90
2019-05-06T16:13:12.963Z,45.30
2019-05-06T16:15:43.944Z,45.90
2019-05-06T16:18:12.975Z,45.00
2019-05-06T16:20:44.374Z,44.90
2019-05-06T16:23:14.282Z,45.00
2019-05-06T16:25:48.329Z,45.50
2019-05-06T16:28:16.676Z,45.00
2019-05-06T16:30:53.174Z,45.10
2019-05-06T16:33:22.115Z,45.70
2019-05-06T16:35:52.287Z,45.80
2019-05-06T16:38:22.782Z,45.50
2019-05-06T16:40:50.432Z,46.50
2019-05-06T16:43:18.678Z,46.50
2019-05-06T16:45:56.078Z,46.50
2019-05-06T16:48:34.147Z,45.20
2019-05-06T16:51:04.527Z,46.70
2019-05-06T16:53:34.877Z,45.60
2019-05-06T16:56:22.126Z,45.80
2019-05-06T16:59:03.037Z,46.60
2019-05-06T17:01:38.970Z,45.90
2019-05-06T17:04:08.867Z,46.50
2019-05-06T17:06:59.862Z,45.20
2019-05-06T17:09:37.311Z,46.20
2019-05-06T17:12:05.562Z,46.10
2019-05-06T17:14:33.818Z,44.90
2019-05-06T17:17:03.287Z,46.20
2019-05-06T17:19:59.264Z,46.90
2019-05-06T17:22:57.711Z,48.00
2019-05-06T17:25:29.072Z,47.40
2019-05-06T17:27:58.963Z,47.40
2019-05-06T17:30:37.807Z,47.80
2019-05-06T17:33:36.545Z,48.60
2019-05-06T17:36:17.564Z,47.50
2019-05-06T17:38:52.435Z,47.60
2019-05-06T17:41:26.598Z,47.90
2019-05-06T17:43:53.288Z,48.10
2019-05-06T17:46:59.207Z,47.80
2019-05-06T17:49:48.507Z,47.70
2019-05-06T17:52:32.933Z,48.20
2019-05-06T17:55:04.053Z,48.40
2019-05-06T17:57:52.831Z,49.20
2019-05-06T18:00:29.543Z,49.30
2019-05-06T18:12:29.179Z,48.30
2019-05-06T18:18:43.941Z,49.50
2019-05-06T18:21:26.986Z,48.80
2019-05-06T18:24:14.710Z,51.40
2019-05-06T18:27:06.931Z,49.00
2019-05-06T18:29:39.163Z,50.10
2019-05-06T18:32:23.365Z,50.30
2019-05-06T18:34:54.713Z,51.20
2019-05-06T18:37:28.927Z,50.30
2019-05-06T18:40:06.877Z,49.70
2019-05-06T18:42:35.193Z,49.90
2019-05-06T18:45:05.118Z,51.50
2019-05-06T18:47:39.376Z,51.20
2019-05-06T18:50:22.367Z,51.80
2019-05-06T18:53:02.879Z,54.90
2019-05-06T18:55:46.407Z,51.00
2019-05-06T18:58:23.474Z,53.70
2019-05-06T19:00:54.691Z,55.20
2019-05-06T19:03:53.235Z,51.10
2019-05-06T19:06:24.411Z,52.10
2019-05-06T19:08:57.243Z,51.10
2019-05-06T19:11:28.501Z,57.30
2019-05-06T19:13:56.807Z,52.20
2019-05-06T19:16:45.581Z,50.70
2019-05-06T19:19:09.552Z,57.50
2019-05-06T19:21:47.028Z,53.50
2019-05-06T19:24:33.805Z,57.60
2019-05-06T19:27:43.871Z,53.60
2019-05-06T19:30:22.495Z,51.10
2019-05-06T19:33:12.310Z,53.10
2019-05-06T19:35:53.589Z,58.60
2019-05-06T19:38:32.875Z,58.60
2019-05-06T19:41:18.820Z,58.80
2019-05-06T19:44:02.095Z,57.00
2019-05-06T19:46:54.361Z,56.60
2019-05-06T19:49:23.858Z,54.50
2019-05-06T19:52:10.328Z,57.50
2019-05-06T19:54:59.539Z,57.80
2019-05-06T19:57:40.393Z,54.20
2019-05-06T20:00:58.047Z,57.70
2019-05-06T20:03:32.849Z,58.50
2019-05-06T20:06:19.163Z,59.40
2019-05-06T20:08:54.955Z,60.90
2019-05-06T20:11:32.962Z,62.30
2019-05-06T20:14:02.064Z,60.80
2019-05-06T20:16:32.308Z,61.60
2019-05-06T20:19:06.507Z,60.20
2019-05-06T20:21:42.391Z,59.40
2019-05-06T20:24:16.841Z,61.10
2019-05-06T20:26:52.762Z,62.70
2019-05-06T20:29:23.777Z,60.70
2019-05-06T20:31:53.522Z,61.00
2019-05-06T20:34:22.547Z,61.50
2019-05-06T20:37:12.842Z,63.70
2019-05-06T20:39:43.239Z,63.90
2019-05-06T20:42:14.247Z,63.50
2019-05-06T20:44:54.892Z,64.20
2019-05-06T20:47:25.863Z,63.50
2019-05-06T20:49:54.140Z,63.70
2019-05-06T20:52:33.148Z,65.10
2019-05-06T20:55:02.905Z,66.40
2019-05-06T20:57:31.327Z,65.10
2019-05-06T20:59:59.567Z,64.20
2019-05-06T21:02:32.609Z,64.30
2019-05-06T21:05:02.182Z,63.30
2019-05-06T21:07:32.381Z,64.20
2019-05-06T21:10:02.243Z,67.00
2019-05-06T21:12:33.772Z,65.70
2019-05-06T21:15:02.401Z,64.40
2019-05-06T21:17:33.574Z,65.20
2019-05-06T21:20:02.857Z,65.50
2019-05-06T21:22:32.022Z,64.90
2019-05-06T21:25:03.387Z,65.00
2019-05-06T21:27:31.627Z,66.00
2019-05-06T21:29:59.875Z,66.50
2019-05-06T21:32:28.143Z,67.20
2019-05-06T21:34:56.390Z,65.70
2019-05-06T21:37:24.642Z,65.80
2019-05-06T21:39:53.052Z,65.10
2019-05-06T21:42:21.331Z,66.40
2019-05-06T21:44:49.582Z,68.40
2019-05-06T21:47:17.859Z,67.80
2019-05-06T21:49:46.099Z,67.20
2019-05-06T21:52:14.344Z,67.40
2019-05-06T21:54:48.265Z,66.90
2019-05-06T21:57:16.508Z,66.80
2019-05-06T21:59:54.061Z,67.10
2019-05-06T22:02:23.015Z,67.70
2019-05-06T22:04:52.301Z,68.60
2019-05-06T22:07:22.900Z,68.90
2019-05-06T22:09:54.244Z,71.10
2019-05-06T22:12:24.486Z,70.40
2019-05-06T22:14:59.515Z,70.10
2019-05-06T22:17:27.758Z,70.20
2019-05-06T22:19:58.706Z,70.80
2019-05-06T22:22:28.590Z,72.40
2019-05-06T22:24:57.979Z,72.70
2019-05-06T22:27:28.124Z,73.40
2019-05-06T22:29:56.443Z,73.10
2019-05-06T22:32:24.689Z,72.90
2019-05-06T22:34:52.951Z,71.40
2019-05-06T22:37:22.134Z,72.50
2019-05-06T22:39:52.582Z,72.30
2019-05-06T22:42:22.634Z,71.80
2019-05-06T22:44:50.482Z,71.40
2019-05-06T22:47:18.728Z,72.30
2019-05-06T22:49:46.989Z,74.40
2019-05-06T22:52:15.238Z,75.10
2019-05-06T22:54:43.546Z,75.00
2019-05-06T22:57:12.124Z,74.90
2019-05-06T22:59:42.569Z,74.80
2019-05-06T23:02:13.172Z,75.10
2019-05-06T23:04:43.332Z,75.40
2019-05-06T23:07:14.219Z,74.90
2019-05-06T23:09:42.600Z,74.60
2019-05-06T23:12:12.312Z,74.70
2019-05-06T23:14:42.027Z,74.30
2019-05-06T23:17:12.618Z,75.20
2019-05-06T23:19:42.612Z,75.10
2019-05-06T23:22:12.046Z,76.40
2019-05-06T23:24:40.480Z,76.90
2019-05-06T23:27:14.535Z,76.20
2019-05-06T23:29:44.983Z,76.60
2019-05-06T23:32:13.966Z,77.10
2019-05-06T23:34:43.284Z,76.80
2019-05-06T23:37:14.863Z,76.00
2019-05-06T23:40:25.915Z,76.10
2019-05-06T23:43:32.923Z,75.80
2019-05-06T23:46:37.778Z,76.30
2019-05-06T23:49:42.627Z,76.20
2019-05-06T23:52:47.411Z,76.40
2019-05-06T23:55:52.068Z,75.80
2019-05-06T23:58:19.431Z,76.30
